Nearby METAR Reports

 

KCOE - Coeur D'alene, Idaho, USA
Distance from station: SSE 4mi, 7km
Updated: Tue, 11-Dec-2018 7:56pm PST
Light rain, Overcast
Light rain, Overcast
 Wind from S
Wind: S 14 mph , 22 km/h
Temperature: 36°F , 2°C
Wind Chill: 27°F , -3°C
Dew Point: 36°F , 2°C
Humidity: 100%
Barometer: 29.63 inHg , 1003.4 hPa
Summary: Light rain
Clouds: Overcast
Visibility: 10 miles , 16 km
Cloud details: Few Clouds 1600 ft
Overcast 2400 ft
2018/12/12 03:56 KCOE 120356Z AUTO 17012KT 10SM -RA FEW016 OVC024 02/02 A2963 RMK AO2 RAE15B33UPB15E33 SLP065 P0000 T00220017 FZRANO
KSFF - Spokane/Felts, Washington, USA
Distance from station: WSW 24mi, 39km
Updated: Tue, 11-Dec-2018 7:53pm PST
Light rain, Overcast
Light rain, Overcast
 Wind from WSW
Wind: WSW 10 mph , 17 km/h, Gust: 20 mph , 31 km/h
Temperature: 39°F , 4°C
Wind Chill: 32°F , 0°C
Dew Point: 36°F , 2°C
Humidity: 87%
Barometer: 29.62 inHg , 1003 hPa
Summary: Light rain
Clouds: Overcast
Visibility: 9 miles , 14 km
Cloud details: Overcast 2400 ft
2018/12/12 03:53 KSFF 120353Z 24009G17KT 9SM -RA OVC024 04/02 A2962 RMK AO2 SLP041 P0004 T00440022
 
KDEW - Deer Park, Washington, USA
Distance from station: WNW 29mi, 47km
Updated: Tue, 11-Dec-2018 8:37pm PST
Light rain, Overcast
Light rain, Overcast
 Wind from S
Wind: S 12 mph , 19 km/h, Gust: 23 mph , 37 km/h
Temperature: 37°F , 3°C
Wind Chill: 29°F , -2°C
Dew Point: 36°F , 2°C
Humidity: 93%
Barometer: 29.60 inHg , 1002.4 hPa
Summary: Light rain
Clouds: Overcast
Visibility: 8 miles , 13 km
Cloud details: Overcast 1000 ft
2018/12/12 04:37 KDEW 120437Z AUTO 18010G20KT 8SM -RA OVC010 03/02 A2960 RMK AO2 RAE15B18UPB15E21 CIG 008V014 P0003 T00280017
KSZT - Wall/Sandpoint, Idaho, USA
Distance from station: NNE 35mi, 56km
Updated: Tue, 11-Dec-2018 8:35pm PST
Light snow, Overcast
Light snow, Overcast
 Wind from S
Wind: S 3 mph , 6 km/h
Temperature: 32°F , 0°C
Dew Point: 32°F , 0°C
Humidity: 100%
Barometer: 29.62 inHg , 1003 hPa
Summary: Light Snow
Clouds: Overcast
Visibility: 2 1/2 miles , 4 km
Cloud details: Overcast 1500 ft
2018/12/12 04:35 KSZT 120435Z AUTO 19003KT 2 1/2SM -SN OVC015 00/00 A2962 RMK AO2
 
KGEG - Spokane/Metro, Washington, USA
Distance from station: WSW 35mi, 57km
Updated: Tue, 11-Dec-2018 8:36pm PST
Light rain, Mist, Overcast
Light rain, Mist, Overcast
 Wind from SSW
Wind: SSW 15 mph , 24 km/h
Temperature: 39°F , 4°C
Wind Chill: 31°F , -1°C
Dew Point: 36°F , 2°C
Humidity: 87%
Barometer: 29.60 inHg , 1002.4 hPa
Summary: Light rain, Mist
Clouds: Overcast
Visibility: 6 miles , 10 km
Cloud details: Few Clouds 700 ft
Mostly cloudy 2300 ft
Overcast 3100 ft
2018/12/12 04:36 KGEG 120436Z 21013KT 6SM -RA BR FEW007 BKN023 OVC031 04/02 A2960 RMK AO2 P0003 T00390017
KSKA - Fairchild Afb, Washington, USA
Distance from station: WSW 40mi, 65km
Updated: Tue, 11-Dec-2018 8:38pm PST
Light rain, Overcast
Light rain, Overcast
 Wind from SSW
Wind: SSW 18 mph , 30 km/h
Temperature: 37°F , 3°C
Wind Chill: 27°F , -3°C
Dew Point: 37°F , 3°C
Humidity: 100%
Barometer: 29.58 inHg , 1001.7 hPa
Summary: Light rain
Clouds: Overcast
Visibility: 10 miles , 16 km
Cloud details: Few Clouds 500 ft
Overcast 2000 ft
2018/12/12 04:38 KSKA 120438Z 21016KT 10SM -RA FEW005 OVC020 03/03 A2958 RMK AO2A SLP035 $